sensor_id;sensor_type;location;lat;lon;timestamp;temperature;humidity
1361;DHT22;674;45.552;-122.600;2022-09-03T00:02:42;31.70;1.00
1361;DHT22;674;45.552;-122.600;2022-09-03T00:05:37;31.50;1.00
1361;DHT22;674;45.552;-122.600;2022-09-03T00:11:39;31.50;1.00
1361;DHT22;674;45.552;-122.600;2022-09-03T00:14:10;31.60;1.00
1361;DHT22;674;45.552;-122.600;2022-09-03T00:16:53;31.60;1.00
1361;DHT22;674;45.552;-122.600;2022-09-03T00:19:39;30.90;1.00
1361;DHT22;674;45.552;-122.600;2022-09-03T00:22:18;30.70;1.00
1361;DHT22;674;45.552;-122.600;2022-09-03T00:24:49;31.00;1.00
1361;DHT22;674;45.552;-122.600;2022-09-03T00:27:22;31.00;1.00
1361;DHT22;674;45.552;-122.600;2022-09-03T00:32:58;30.80;1.00
1361;DHT22;674;45.552;-122.600;2022-09-03T00:35:46;30.70;1.00
1361;DHT22;674;45.552;-122.600;2022-09-03T00:38:16;30.60;1.00
1361;DHT22;674;45.552;-122.600;2022-09-03T00:46:38;30.20;1.00
1361;DHT22;674;45.552;-122.600;2022-09-03T00:55:20;29.80;1.00
1361;DHT22;674;45.552;-122.600;2022-09-03T01:00:38;29.50;1.00
1361;DHT22;674;45.552;-122.600;2022-09-03T01:06:12;29.60;1.00
1361;DHT22;674;45.552;-122.600;2022-09-03T01:23:14;28.60;1.00
1361;DHT22;674;45.552;-122.600;2022-09-03T01:33:52;28.30;1.00
1361;DHT22;674;45.552;-122.600;2022-09-03T01:39:04;27.90;1.00
1361;DHT22;674;45.552;-122.600;2022-09-03T01:41:53;27.60;1.00
1361;DHT22;674;45.552;-122.600;2022-09-03T01:48:32;27.20;1.00
1361;DHT22;674;45.552;-122.600;2022-09-03T02:00:22;26.80;1.00
1361;DHT22;674;45.552;-122.600;2022-09-03T02:02:50;26.70;1.00
1361;DHT22;674;45.552;-122.600;2022-09-03T02:05:25;26.80;1.00
1361;DHT22;674;45.552;-122.600;2022-09-03T02:08:00;26.70;1.00
1361;DHT22;674;45.552;-122.600;2022-09-03T02:10:51;26.40;1.00
1361;DHT22;674;45.552;-122.600;2022-09-03T02:16:14;26.40;1.00
1361;DHT22;674;45.552;-122.600;2022-09-03T02:18:47;26.30;1.00
1361;DHT22;674;45.552;-122.600;2022-09-03T02:21:19;26.20;1.00
1361;DHT22;674;45.552;-122.600;2022-09-03T02:23:48;26.00;1.00
1361;DHT22;674;45.552;-122.600;2022-09-03T02:26:21;25.90;1.00
1361;DHT22;674;45.552;-122.600;2022-09-03T02:28:52;25.80;1.00
1361;DHT22;674;45.552;-122.600;2022-09-03T02:31:22;25.70;1.00
1361;DHT22;674;45.552;-122.600;2022-09-03T02:33:51;25.60;1.00
1361;DHT22;674;45.552;-122.600;2022-09-03T02:36:25;25.40;1.00
1361;DHT22;674;45.552;-122.600;2022-09-03T02:38:54;25.40;1.00
1361;DHT22;674;45.552;-122.600;2022-09-03T02:41:23;25.40;1.00
1361;DHT22;674;45.552;-122.600;2022-09-03T02:44:28;25.20;1.00
1361;DHT22;674;45.552;-122.600;2022-09-03T02:47:00;25.10;1.00
1361;DHT22;674;45.552;-122.600;2022-09-03T02:49:31;24.80;1.00
1361;DHT22;674;45.552;-122.600;2022-09-03T02:52:02;24.80;1.00
1361;DHT22;674;45.552;-122.600;2022-09-03T02:54:36;24.80;1.00
1361;DHT22;674;45.552;-122.600;2022-09-03T02:57:08;24.70;1.00
1361;DHT22;674;45.552;-122.600;2022-09-03T02:59:36;24.60;1.00
1361;DHT22;674;45.552;-122.600;2022-09-03T03:02:06;24.40;1.00
1361;DHT22;674;45.552;-122.600;2022-09-03T03:04:35;24.20;1.00
1361;DHT22;674;45.552;-122.600;2022-09-03T03:07:05;24.00;1.00
1361;DHT22;674;45.552;-122.600;2022-09-03T03:09:34;23.90;1.00
1361;DHT22;674;45.552;-122.600;2022-09-03T03:12:03;23.70;1.00
1361;DHT22;674;45.552;-122.600;2022-09-03T03:14:32;23.70;1.00
1361;DHT22;674;45.552;-122.600;2022-09-03T03:17:00;23.50;1.00
1361;DHT22;674;45.552;-122.600;2022-09-03T03:19:29;23.30;1.00
1361;DHT22;674;45.552;-122.600;2022-09-03T03:21:57;23.20;1.00
1361;DHT22;674;45.552;-122.600;2022-09-03T03:24:26;23.10;1.00
1361;DHT22;674;45.552;-122.600;2022-09-03T03:26:55;23.00;1.00
1361;DHT22;674;45.552;-122.600;2022-09-03T03:29:27;22.90;1.00
1361;DHT22;674;45.552;-122.600;2022-09-03T03:31:55;22.70;1.00
1361;DHT22;674;45.552;-122.600;2022-09-03T03:34:24;22.50;1.00
1361;DHT22;674;45.552;-122.600;2022-09-03T03:36:53;22.40;1.00
1361;DHT22;674;45.552;-122.600;2022-09-03T03:39:22;22.30;1.00
1361;DHT22;674;45.552;-122.600;2022-09-03T03:41:50;22.30;1.00
1361;DHT22;674;45.552;-122.600;2022-09-03T03:44:19;22.30;1.00
1361;DHT22;674;45.552;-122.600;2022-09-03T03:46:48;22.20;1.00
1361;DHT22;674;45.552;-122.600;2022-09-03T03:49:17;22.00;1.00
1361;DHT22;674;45.552;-122.600;2022-09-03T03:51:45;21.90;1.00
1361;DHT22;674;45.552;-122.600;2022-09-03T03:54:14;21.80;1.00
1361;DHT22;674;45.552;-122.600;2022-09-03T03:56:43;21.70;1.00
1361;DHT22;674;45.552;-122.600;2022-09-03T03:59:21;21.50;1.00
1361;DHT22;674;45.552;-122.600;2022-09-03T04:01:50;21.40;1.00
1361;DHT22;674;45.552;-122.600;2022-09-03T04:04:18;21.40;1.00
1361;DHT22;674;45.552;-122.600;2022-09-03T04:06:46;21.50;1.00
1361;DHT22;674;45.552;-122.600;2022-09-03T04:09:15;21.40;1.00
1361;DHT22;674;45.552;-122.600;2022-09-03T04:11:43;21.50;1.00
1361;DHT22;674;45.552;-122.600;2022-09-03T04:14:12;21.40;1.00
1361;DHT22;674;45.552;-122.600;2022-09-03T04:16:40;21.40;1.00
1361;DHT22;674;45.552;-122.600;2022-09-03T04:19:09;21.20;1.00
1361;DHT22;674;45.552;-122.600;2022-09-03T04:21:38;21.10;1.00
1361;DHT22;674;45.552;-122.600;2022-09-03T04:24:06;20.90;1.00
1361;DHT22;674;45.552;-122.600;2022-09-03T04:26:35;20.70;1.00
1361;DHT22;674;45.552;-122.600;2022-09-03T04:29:06;20.60;1.00
1361;DHT22;674;45.552;-122.600;2022-09-03T04:31:36;20.30;1.00
1361;DHT22;674;45.552;-122.600;2022-09-03T04:34:06;20.30;1.00
1361;DHT22;674;45.552;-122.600;2022-09-03T04:36:34;20.30;1.00
1361;DHT22;674;45.552;-122.600;2022-09-03T04:39:04;20.40;1.00
1361;DHT22;674;45.552;-122.600;2022-09-03T04:41:32;20.20;1.00
1361;DHT22;674;45.552;-122.600;2022-09-03T04:44:01;20.00;1.00
1361;DHT22;674;45.552;-122.600;2022-09-03T04:46:29;20.00;1.00
1361;DHT22;674;45.552;-122.600;2022-09-03T04:49:01;19.90;1.00
1361;DHT22;674;45.552;-122.600;2022-09-03T04:51:30;19.70;1.00
1361;DHT22;674;45.552;-122.600;2022-09-03T04:54:00;19.60;1.00
1361;DHT22;674;45.552;-122.600;2022-09-03T04:56:33;19.50;1.00
1361;DHT22;674;45.552;-122.600;2022-09-03T04:59:04;19.40;1.00
1361;DHT22;674;45.552;-122.600;2022-09-03T05:01:35;19.30;1.00
1361;DHT22;674;45.552;-122.600;2022-09-03T05:04:05;19.30;1.00
1361;DHT22;674;45.552;-122.600;2022-09-03T05:06:34;19.10;1.00
1361;DHT22;674;45.552;-122.600;2022-09-03T05:09:03;19.10;1.00
1361;DHT22;674;45.552;-122.600;2022-09-03T05:11:32;19.00;1.00
1361;DHT22;674;45.552;-122.600;2022-09-03T05:14:00;18.90;1.00
1361;DHT22;674;45.552;-122.600;2022-09-03T05:16:29;18.90;1.00
1361;DHT22;674;45.552;-122.600;2022-09-03T05:18:58;18.90;1.00
1361;DHT22;674;45.552;-122.600;2022-09-03T05:21:28;18.90;1.00
1361;DHT22;674;45.552;-122.600;2022-09-03T05:23:59;18.80;1.00
1361;DHT22;674;45.552;-122.600;2022-09-03T05:26:31;18.70;1.00
1361;DHT22;674;45.552;-122.600;2022-09-03T05:29:01;18.60;1.00
1361;DHT22;674;45.552;-122.600;2022-09-03T05:31:30;18.80;1.00
1361;DHT22;674;45.552;-122.600;2022-09-03T05:34:01;18.80;1.00
1361;DHT22;674;45.552;-122.600;2022-09-03T05:36:35;18.60;1.00
1361;DHT22;674;45.552;-122.600;2022-09-03T05:39:06;18.50;1.00
1361;DHT22;674;45.552;-122.600;2022-09-03T05:41:34;18.30;1.00
1361;DHT22;674;45.552;-122.600;2022-09-03T05:44:03;18.20;4.70
1361;DHT22;674;45.552;-122.600;2022-09-03T05:46:33;18.20;6.10
1361;DHT22;674;45.552;-122.600;2022-09-03T05:49:06;18.10;10.30
1361;DHT22;674;45.552;-122.600;2022-09-03T05:51:35;18.10;8.40
1361;DHT22;674;45.552;-122.600;2022-09-03T05:54:06;17.90;15.50
1361;DHT22;674;45.552;-122.600;2022-09-03T05:56:37;17.80;19.80
1361;DHT22;674;45.552;-122.600;2022-09-03T05:59:09;17.80;23.30
1361;DHT22;674;45.552;-122.600;2022-09-03T06:01:40;17.80;20.20
1361;DHT22;674;45.552;-122.600;2022-09-03T06:04:17;17.80;23.60
1361;DHT22;674;45.552;-122.600;2022-09-03T06:06:46;17.70;27.70
1361;DHT22;674;45.552;-122.600;2022-09-03T06:09:17;17.70;30.20
1361;DHT22;674;45.552;-122.600;2022-09-03T06:11:47;17.70;27.20
1361;DHT22;674;45.552;-122.600;2022-09-03T06:14:19;17.60;31.60
1361;DHT22;674;45.552;-122.600;2022-09-03T06:16:49;17.60;34.00
1361;DHT22;674;45.552;-122.600;2022-09-03T06:19:19;17.60;33.20
1361;DHT22;674;45.552;-122.600;2022-09-03T06:21:48;17.70;29.40
1361;DHT22;674;45.552;-122.600;2022-09-03T06:24:20;17.50;35.40
1361;DHT22;674;45.552;-122.600;2022-09-03T06:26:55;17.50;38.50
1361;DHT22;674;45.552;-122.600;2022-09-03T06:29:24;17.50;39.70
1361;DHT22;674;45.552;-122.600;2022-09-03T06:31:52;17.20;47.50
1361;DHT22;674;45.552;-122.600;2022-09-03T06:34:22;17.30;53.50
1361;DHT22;674;45.552;-122.600;2022-09-03T06:36:54;17.40;52.00
1361;DHT22;674;45.552;-122.600;2022-09-03T06:39:22;17.20;51.80
1361;DHT22;674;45.552;-122.600;2022-09-03T06:41:52;17.30;55.60
1361;DHT22;674;45.552;-122.600;2022-09-03T06:44:22;17.40;55.20
1361;DHT22;674;45.552;-122.600;2022-09-03T06:46:50;17.50;44.50
1361;DHT22;674;45.552;-122.600;2022-09-03T06:49:20;17.50;46.80
1361;DHT22;674;45.552;-122.600;2022-09-03T06:51:49;17.60;40.00
1361;DHT22;674;45.552;-122.600;2022-09-03T06:54:17;17.60;35.70
1361;DHT22;674;45.552;-122.600;2022-09-03T06:56:45;17.60;35.30
1361;DHT22;674;45.552;-122.600;2022-09-03T06:59:14;17.70;29.30
1361;DHT22;674;45.552;-122.600;2022-09-03T07:01:43;17.70;23.70
1361;DHT22;674;45.552;-122.600;2022-09-03T07:04:14;17.50;29.30
1361;DHT22;674;45.552;-122.600;2022-09-03T07:06:47;17.60;28.40
1361;DHT22;674;45.552;-122.600;2022-09-03T07:09:16;17.80;22.50
1361;DHT22;674;45.552;-122.600;2022-09-03T07:11:46;17.80;17.00
1361;DHT22;674;45.552;-122.600;2022-09-03T07:14:16;17.80;15.30
1361;DHT22;674;45.552;-122.600;2022-09-03T07:16:47;17.60;16.00
1361;DHT22;674;45.552;-122.600;2022-09-03T07:19:16;17.70;19.00
1361;DHT22;674;45.552;-122.600;2022-09-03T07:21:45;17.70;18.60
1361;DHT22;674;45.552;-122.600;2022-09-03T07:24:17;17.50;26.70
1361;DHT22;674;45.552;-122.600;2022-09-03T07:26:46;17.70;19.90
1361;DHT22;674;45.552;-122.600;2022-09-03T07:29:16;17.70;20.80
1361;DHT22;674;45.552;-122.600;2022-09-03T07:31:48;17.40;24.40
1361;DHT22;674;45.552;-122.600;2022-09-03T07:34:21;17.30;30.20
1361;DHT22;674;45.552;-122.600;2022-09-03T07:36:53;17.30;34.80
1361;DHT22;674;45.552;-122.600;2022-09-03T07:39:22;17.30;30.70
1361;DHT22;674;45.552;-122.600;2022-09-03T07:41:50;17.30;36.00
1361;DHT22;674;45.552;-122.600;2022-09-03T07:44:19;17.40;32.70
1361;DHT22;674;45.552;-122.600;2022-09-03T07:46:47;17.40;31.30
1361;DHT22;674;45.552;-122.600;2022-09-03T07:49:19;17.40;26.90
1361;DHT22;674;45.552;-122.600;2022-09-03T07:51:49;17.40;31.40
1361;DHT22;674;45.552;-122.600;2022-09-03T07:54:19;17.40;28.20
1361;DHT22;674;45.552;-122.600;2022-09-03T07:56:48;17.40;28.90
1361;DHT22;674;45.552;-122.600;2022-09-03T07:59:17;17.50;27.70
1361;DHT22;674;45.552;-122.600;2022-09-03T08:01:47;17.50;25.30
1361;DHT22;674;45.552;-122.600;2022-09-03T08:04:15;17.50;23.90
1361;DHT22;674;45.552;-122.600;2022-09-03T08:06:44;17.30;27.90
1361;DHT22;674;45.552;-122.600;2022-09-03T08:09:12;17.40;28.40
1361;DHT22;674;45.552;-122.600;2022-09-03T08:11:42;17.40;26.20
1361;DHT22;674;45.552;-122.600;2022-09-03T08:14:12;17.50;18.90
1361;DHT22;674;45.552;-122.600;2022-09-03T08:16:44;17.60;18.70
1361;DHT22;674;45.552;-122.600;2022-09-03T08:19:18;17.40;19.30
1361;DHT22;674;45.552;-122.600;2022-09-03T08:21:47;17.40;21.30
1361;DHT22;674;45.552;-122.600;2022-09-03T08:24:16;17.40;22.20
1361;DHT22;674;45.552;-122.600;2022-09-03T08:26:47;17.30;25.90
1361;DHT22;674;45.552;-122.600;2022-09-03T08:29:19;17.10;34.30
1361;DHT22;674;45.552;-122.600;2022-09-03T08:31:48;17.10;35.00
1361;DHT22;674;45.552;-122.600;2022-09-03T08:34:18;17.00;39.10
1361;DHT22;674;45.552;-122.600;2022-09-03T08:36:46;17.00;40.60
1361;DHT22;674;45.552;-122.600;2022-09-03T08:39:15;17.10;39.90
1361;DHT22;674;45.552;-122.600;2022-09-03T08:58:00;16.90;39.90
1361;DHT22;674;45.552;-122.600;2022-09-03T09:23:00;17.50;16.50
1361;DHT22;674;45.552;-122.600;2022-09-03T09:25:30;17.40;20.10
1361;DHT22;674;45.552;-122.600;2022-09-03T09:30:41;17.60;10.50
1361;DHT22;674;45.552;-122.600;2022-09-03T09:33:11;17.50;16.10
1361;DHT22;674;45.552;-122.600;2022-09-03T09:35:39;17.60;15.60
1361;DHT22;674;45.552;-122.600;2022-09-03T09:38:10;17.60;17.30
1361;DHT22;674;45.552;-122.600;2022-09-03T09:40:44;17.60;16.20
1361;DHT22;674;45.552;-122.600;2022-09-03T09:43:17;17.70;15.50
1361;DHT22;674;45.552;-122.600;2022-09-03T09:45:50;17.70;13.00
1361;DHT22;674;45.552;-122.600;2022-09-03T09:48:29;17.70;12.90
1361;DHT22;674;45.552;-122.600;2022-09-03T09:51:12;17.80;10.70
1361;DHT22;674;45.552;-122.600;2022-09-03T09:53:40;17.80;10.00
1361;DHT22;674;45.552;-122.600;2022-09-03T09:56:23;17.70;10.20
1361;DHT22;674;45.552;-122.600;2022-09-03T09:59:08;17.50;15.20
1361;DHT22;674;45.552;-122.600;2022-09-03T10:01:42;17.40;20.80
1361;DHT22;674;45.552;-122.600;2022-09-03T10:04:24;17.60;20.40
1361;DHT22;674;45.552;-122.600;2022-09-03T10:07:24;17.50;16.50
1361;DHT22;674;45.552;-122.600;2022-09-03T10:10:06;17.40;21.50
1361;DHT22;674;45.552;-122.600;2022-09-03T10:13:00;17.50;21.60
1361;DHT22;674;45.552;-122.600;2022-09-03T10:26:43;17.60;12.20
1361;DHT22;674;45.552;-122.600;2022-09-03T10:29:18;17.40;18.70
1361;DHT22;674;45.552;-122.600;2022-09-03T10:51:04;17.70;14.30
1361;DHT22;674;45.552;-122.600;2022-09-03T10:54:02;17.90;10.80
1361;DHT22;674;45.552;-122.600;2022-09-03T11:07:38;17.90;8.30
1361;DHT22;674;45.552;-122.600;2022-09-03T11:10:24;17.90;4.30
1361;DHT22;674;45.552;-122.600;2022-09-03T11:18:40;17.80;8.60
1361;DHT22;674;45.552;-122.600;2022-09-03T11:21:12;17.80;11.00
1361;DHT22;674;45.552;-122.600;2022-09-03T11:23:47;17.90;8.20
1361;DHT22;674;45.552;-122.600;2022-09-03T11:26:23;18.10;7.60
1361;DHT22;674;45.552;-122.600;2022-09-03T11:31:50;18.20;1.40
1361;DHT22;674;45.552;-122.600;2022-09-03T11:34:26;18.20;1.00
1361;DHT22;674;45.552;-122.600;2022-09-03T11:42:36;18.40;1.00
1361;DHT22;674;45.552;-122.600;2022-09-03T11:48:02;18.40;1.00
1361;DHT22;674;45.552;-122.600;2022-09-03T11:50:52;18.40;1.00
1361;DHT22;674;45.552;-122.600;2022-09-03T11:53:31;18.50;1.00
1361;DHT22;674;45.552;-122.600;2022-09-03T11:56:17;18.50;1.00
1361;DHT22;674;45.552;-122.600;2022-09-03T11:58:46;18.70;1.00
1361;DHT22;674;45.552;-122.600;2022-09-03T12:01:26;18.70;1.00
1361;DHT22;674;45.552;-122.600;2022-09-03T12:03:59;18.60;1.00
1361;DHT22;674;45.552;-122.600;2022-09-03T12:12:42;18.50;1.00
1361;DHT22;674;45.552;-122.600;2022-09-03T12:17:56;18.40;1.00
1361;DHT22;674;45.552;-122.600;2022-09-03T12:20:59;18.10;1.00
1361;DHT22;674;45.552;-122.600;2022-09-03T12:23:49;18.20;1.00
1361;DHT22;674;45.552;-122.600;2022-09-03T12:26:25;18.30;1.00
1361;DHT22;674;45.552;-122.600;2022-09-03T12:28:56;18.20;1.00
1361;DHT22;674;45.552;-122.600;2022-09-03T12:31:28;18.10;1.00
1361;DHT22;674;45.552;-122.600;2022-09-03T12:34:00;18.00;1.90
1361;DHT22;674;45.552;-122.600;2022-09-03T12:36:46;18.00;3.00
1361;DHT22;674;45.552;-122.600;2022-09-03T12:39:20;18.00;7.30
1361;DHT22;674;45.552;-122.600;2022-09-03T12:42:20;18.00;8.60
1361;DHT22;674;45.552;-122.600;2022-09-03T12:44:49;18.00;8.00
1361;DHT22;674;45.552;-122.600;2022-09-03T12:47:20;18.10;4.30
1361;DHT22;674;45.552;-122.600;2022-09-03T12:50:16;17.80;17.60
1361;DHT22;674;45.552;-122.600;2022-09-03T12:52:50;17.80;18.90
1361;DHT22;674;45.552;-122.600;2022-09-03T12:58:00;17.80;26.50
1361;DHT22;674;45.552;-122.600;2022-09-03T13:00:33;17.80;22.60
1361;DHT22;674;45.552;-122.600;2022-09-03T13:03:10;17.50;30.80
1361;DHT22;674;45.552;-122.600;2022-09-03T13:05:49;17.60;40.10
1361;DHT22;674;45.552;-122.600;2022-09-03T13:08:31;17.60;43.90
1361;DHT22;674;45.552;-122.600;2022-09-03T13:11:03;17.80;34.30
1361;DHT22;674;45.552;-122.600;2022-09-03T13:13:34;17.70;38.00
1361;DHT22;674;45.552;-122.600;2022-09-03T13:27:52;17.40;54.00
1361;DHT22;674;45.552;-122.600;2022-09-03T13:30:28;17.40;55.60
1361;DHT22;674;45.552;-122.600;2022-09-03T13:33:09;17.30;60.90
1361;DHT22;674;45.552;-122.600;2022-09-03T13:35:46;17.40;57.60
1361;DHT22;674;45.552;-122.600;2022-09-03T13:41:17;17.20;81.30
1361;DHT22;674;45.552;-122.600;2022-09-03T13:44:15;17.20;87.70
1361;DHT22;674;45.552;-122.600;2022-09-03T13:47:00;17.30;87.40
1361;DHT22;674;45.552;-122.600;2022-09-03T13:53:00;17.50;79.90
1361;DHT22;674;45.552;-122.600;2022-09-03T14:01:03;17.20;85.30
1361;DHT22;674;45.552;-122.600;2022-09-03T14:03:45;17.20;86.00
1361;DHT22;674;45.552;-122.600;2022-09-03T14:17:31;17.50;79.10
1361;DHT22;674;45.552;-122.600;2022-09-03T14:20:29;17.50;82.50
1361;DHT22;674;45.552;-122.600;2022-09-03T14:25:31;17.50;84.60
1361;DHT22;674;45.552;-122.600;2022-09-03T14:28:14;17.70;81.10
1361;DHT22;674;45.552;-122.600;2022-09-03T14:33:50;17.80;75.60
1361;DHT22;674;45.552;-122.600;2022-09-03T15:07:47;18.30;22.60
1361;DHT22;674;45.552;-122.600;2022-09-03T15:12:57;18.30;24.90
1361;DHT22;674;45.552;-122.600;2022-09-03T15:20:53;18.40;18.70
1361;DHT22;674;45.552;-122.600;2022-09-03T15:23:52;18.30;16.60
1361;DHT22;674;45.552;-122.600;2022-09-03T15:26:37;18.20;23.70
1361;DHT22;674;45.552;-122.600;2022-09-03T15:35:06;18.70;13.40
1361;DHT22;674;45.552;-122.600;2022-09-03T15:37:45;18.70;11.00
1361;DHT22;674;45.552;-122.600;2022-09-03T15:40:34;18.80;8.70
1361;DHT22;674;45.552;-122.600;2022-09-03T15:43:17;18.90;1.00
1361;DHT22;674;45.552;-122.600;2022-09-03T15:45:53;18.80;2.40
1361;DHT22;674;45.552;-122.600;2022-09-03T15:48:27;18.70;1.00
1361;DHT22;674;45.552;-122.600;2022-09-03T15:53:44;18.90;1.00
1361;DHT22;674;45.552;-122.600;2022-09-03T15:56:54;19.00;1.00
1361;DHT22;674;45.552;-122.600;2022-09-03T16:05:20;19.10;1.00
1361;DHT22;674;45.552;-122.600;2022-09-03T16:08:31;19.10;1.00
1361;DHT22;674;45.552;-122.600;2022-09-03T16:13:54;19.60;1.00
1361;DHT22;674;45.552;-122.600;2022-09-03T16:19:29;20.30;1.00
1361;DHT22;674;45.552;-122.600;2022-09-03T16:22:04;20.40;1.00
1361;DHT22;674;45.552;-122.600;2022-09-03T16:24:51;20.50;1.00
1361;DHT22;674;45.552;-122.600;2022-09-03T16:27:32;20.90;1.00
1361;DHT22;674;45.552;-122.600;2022-09-03T16:35:50;20.90;1.00
1361;DHT22;674;45.552;-122.600;2022-09-03T17:24:56;23.30;1.00
1361;DHT22;674;45.552;-122.600;2022-09-03T17:30:35;22.70;1.00
1361;DHT22;674;45.552;-122.600;2022-09-03T17:36:11;22.50;1.00
1361;DHT22;674;45.552;-122.600;2022-09-03T17:47:06;22.00;1.00
1361;DHT22;674;45.552;-122.600;2022-09-03T17:49:47;22.00;1.00
1361;DHT22;674;45.552;-122.600;2022-09-03T17:58:16;21.50;1.00
1361;DHT22;674;45.552;-122.600;2022-09-03T18:01:12;21.60;1.00
1361;DHT22;674;45.552;-122.600;2022-09-03T18:06:29;21.40;1.00
1361;DHT22;674;45.552;-122.600;2022-09-03T18:17:44;22.50;1.00
1361;DHT22;674;45.552;-122.600;2022-09-03T18:20:16;22.60;1.00
1361;DHT22;674;45.552;-122.600;2022-09-03T18:23:07;22.80;1.00
1361;DHT22;674;45.552;-122.600;2022-09-03T18:26:11;22.80;1.00
1361;DHT22;674;45.552;-122.600;2022-09-03T18:29:10;23.30;1.00
1361;DHT22;674;45.552;-122.600;2022-09-03T18:31:59;23.20;1.00
1361;DHT22;674;45.552;-122.600;2022-09-03T18:34:46;23.20;1.00
1361;DHT22;674;45.552;-122.600;2022-09-03T18:37:34;23.40;1.00
1361;DHT22;674;45.552;-122.600;2022-09-03T18:40:26;22.80;1.00
1361;DHT22;674;45.552;-122.600;2022-09-03T18:53:10;21.80;1.00
1361;DHT22;674;45.552;-122.600;2022-09-03T19:06:02;21.90;1.00
1361;DHT22;674;45.552;-122.600;2022-09-03T19:09:29;22.10;1.00
1361;DHT22;674;45.552;-122.600;2022-09-03T19:12:33;22.50;1.00
1361;DHT22;674;45.552;-122.600;2022-09-03T19:15:36;22.50;1.00
1361;DHT22;674;45.552;-122.600;2022-09-03T19:21:38;22.40;1.00
1361;DHT22;674;45.552;-122.600;2022-09-03T19:24:29;22.50;1.00
1361;DHT22;674;45.552;-122.600;2022-09-03T19:27:30;22.60;1.00
1361;DHT22;674;45.552;-122.600;2022-09-03T19:30:51;22.50;1.00
1361;DHT22;674;45.552;-122.600;2022-09-03T19:46:48;23.20;1.00
1361;DHT22;674;45.552;-122.600;2022-09-03T19:52:59;23.70;1.00
1361;DHT22;674;45.552;-122.600;2022-09-03T19:55:58;23.90;1.00
1361;DHT22;674;45.552;-122.600;2022-09-03T19:59:05;24.30;1.00
1361;DHT22;674;45.552;-122.600;2022-09-03T20:01:52;23.70;1.00
1361;DHT22;674;45.552;-122.600;2022-09-03T20:04:56;23.70;1.00
1361;DHT22;674;45.552;-122.600;2022-09-03T20:07:49;24.20;1.00
1361;DHT22;674;45.552;-122.600;2022-09-03T20:10:38;24.50;1.00
1361;DHT22;674;45.552;-122.600;2022-09-03T20:13:17;24.30;1.00
1361;DHT22;674;45.552;-122.600;2022-09-03T20:18:24;24.40;1.00
1361;DHT22;674;45.552;-122.600;2022-09-03T20:35:03;24.30;1.00
1361;DHT22;674;45.552;-122.600;2022-09-03T20:37:43;24.60;1.00
1361;DHT22;674;45.552;-122.600;2022-09-03T20:49:34;25.70;1.00
1361;DHT22;674;45.552;-122.600;2022-09-03T20:52:18;25.80;1.00
1361;DHT22;674;45.552;-122.600;2022-09-03T20:55:35;25.50;1.00
1361;DHT22;674;45.552;-122.600;2022-09-03T20:58:15;26.00;1.00
1361;DHT22;674;45.552;-122.600;2022-09-03T21:01:04;25.70;1.00
1361;DHT22;674;45.552;-122.600;2022-09-03T21:03:57;25.80;1.00
1361;DHT22;674;45.552;-122.600;2022-09-03T21:13:18;24.80;1.00
1361;DHT22;674;45.552;-122.600;2022-09-03T21:23:48;23.70;1.00
1361;DHT22;674;45.552;-122.600;2022-09-03T21:29:46;24.70;1.00
1361;DHT22;674;45.552;-122.600;2022-09-03T21:37:03;24.70;1.00
1361;DHT22;674;45.552;-122.600;2022-09-03T21:39:48;24.60;1.00
1361;DHT22;674;45.552;-122.600;2022-09-03T21:42:26;24.70;1.00
1361;DHT22;674;45.552;-122.600;2022-09-03T21:45:10;24.80;1.00
1361;DHT22;674;45.552;-122.600;2022-09-03T21:47:47;24.90;1.00
1361;DHT22;674;45.552;-122.600;2022-09-03T21:50:19;24.90;1.00
1361;DHT22;674;45.552;-122.600;2022-09-03T21:55:49;24.50;1.00
1361;DHT22;674;45.552;-122.600;2022-09-03T22:04:44;24.50;1.00
1361;DHT22;674;45.552;-122.600;2022-09-03T22:17:05;23.90;1.00
1361;DHT22;674;45.552;-122.600;2022-09-03T22:19:07;24.00;1.00
1361;DHT22;674;45.552;-122.600;2022-09-03T22:21:54;24.10;1.00
1361;DHT22;674;45.552;-122.600;2022-09-03T22:24:44;24.20;1.00
1361;DHT22;674;45.552;-122.600;2022-09-03T22:30:09;24.30;1.00
1361;DHT22;674;45.552;-122.600;2022-09-03T22:36:10;24.30;1.00
1361;DHT22;674;45.552;-122.600;2022-09-03T22:39:07;24.00;1.00
1361;DHT22;674;45.552;-122.600;2022-09-03T22:47:17;23.80;1.00
1361;DHT22;674;45.552;-122.600;2022-09-03T22:49:50;23.80;1.00
1361;DHT22;674;45.552;-122.600;2022-09-03T23:00:18;23.90;1.00
1361;DHT22;674;45.552;-122.600;2022-09-03T23:02:55;23.90;1.00
1361;DHT22;674;45.552;-122.600;2022-09-03T23:05:49;23.90;1.00
1361;DHT22;674;45.552;-122.600;2022-09-03T23:08:32;23.90;1.00
1361;DHT22;674;45.552;-122.600;2022-09-03T23:11:21;24.10;1.00
1361;DHT22;674;45.552;-122.600;2022-09-03T23:14:04;24.20;1.00
1361;DHT22;674;45.552;-122.600;2022-09-03T23:19:43;24.30;1.00
1361;DHT22;674;45.552;-122.600;2022-09-03T23:22:41;24.10;1.00
1361;DHT22;674;45.552;-122.600;2022-09-03T23:25:35;24.20;1.00
1361;DHT22;674;45.552;-122.600;2022-09-03T23:28:20;24.00;1.00
1361;DHT22;674;45.552;-122.600;2022-09-03T23:30:51;23.70;1.00
1361;DHT22;674;45.552;-122.600;2022-09-03T23:33:20;23.80;1.00
1361;DHT22;674;45.552;-122.600;2022-09-03T23:36:05;24.10;1.00
1361;DHT22;674;45.552;-122.600;2022-09-03T23:39:39;24.00;1.00
1361;DHT22;674;45.552;-122.600;2022-09-03T23:42:06;23.80;1.00
1361;DHT22;674;45.552;-122.600;2022-09-03T23:44:48;23.50;1.00
1361;DHT22;674;45.552;-122.600;2022-09-03T23:59:12;23.60;1.00
